createdAt,value
2018-02-21T00:02:21.467Z,33.00
2018-02-21T00:04:48.936Z,32.13
2018-02-21T00:07:16.686Z,32.47
2018-02-21T00:09:44.589Z,31.47
2018-02-21T00:12:12.998Z,33.63
2018-02-21T00:14:40.462Z,32.70
2018-02-21T00:17:08.681Z,33.17
2018-02-21T00:19:37.733Z,33.83
2018-02-21T00:22:05.642Z,33.23
2018-02-21T00:24:33.088Z,33.37
2018-02-21T00:27:00.538Z,35.13
2018-02-21T00:29:28.538Z,35.07
2018-02-21T00:31:56.776Z,35.63
2018-02-21T00:34:24.631Z,34.80
2018-02-21T00:36:52.546Z,36.00
2018-02-21T00:39:21.173Z,35.03
2018-02-21T00:41:48.630Z,36.97
2018-02-21T00:44:16.098Z,36.50
2018-02-21T00:46:45.069Z,36.83
2018-02-21T00:49:12.546Z,40.00
2018-02-21T00:51:40.023Z,37.30
2018-02-21T00:54:07.557Z,37.60
2018-02-21T00:56:35.118Z,38.03
2018-02-21T00:59:02.578Z,38.93
2018-02-21T01:01:30.132Z,38.00
2018-02-21T01:03:57.586Z,37.73
2018-02-21T01:06:25.581Z,38.10
2018-02-21T01:08:53.061Z,36.37
2018-02-21T01:11:21.273Z,38.50
2018-02-21T01:13:48.811Z,39.07
2018-02-21T01:16:16.274Z,40.13
2018-02-21T01:18:43.746Z,37.93
2018-02-21T01:21:11.197Z,37.97
2018-02-21T01:23:38.649Z,36.07
2018-02-21T01:26:06.118Z,36.23
2018-02-21T01:28:33.572Z,37.83
2018-02-21T01:31:01.038Z,34.93
2018-02-21T01:33:28.485Z,37.47
2018-02-21T01:35:55.945Z,36.37
2018-02-21T01:38:24.674Z,36.63
2018-02-21T01:40:53.032Z,36.10
2018-02-21T01:43:20.480Z,36.13
2018-02-21T01:45:48.706Z,35.53
2018-02-21T01:48:16.797Z,35.37
2018-02-21T01:50:52.052Z,35.47
2018-02-21T01:53:19.501Z,32.27
2018-02-21T01:55:46.954Z,34.67
2018-02-21T01:58:14.429Z,35.53
2018-02-21T02:00:41.878Z,33.73
2018-02-21T02:03:09.712Z,33.70
2018-02-21T02:05:37.170Z,34.30
2018-02-21T02:08:04.630Z,35.17
2018-02-21T02:10:32.081Z,35.70
2018-02-21T02:12:59.541Z,33.83
2018-02-21T02:15:26.994Z,32.77
2018-02-21T02:17:54.454Z,31.90
2018-02-21T02:20:22.334Z,33.87
2018-02-21T02:22:50.809Z,34.10
2018-02-21T02:25:18.692Z,35.03
2018-02-21T02:27:46.138Z,33.10
2018-02-21T02:30:13.594Z,32.87
2018-02-21T02:32:41.685Z,35.03
2018-02-21T02:35:09.142Z,33.80
2018-02-21T02:37:36.592Z,33.00
2018-02-21T02:40:04.047Z,34.63
2018-02-21T02:42:31.518Z,33.73
2018-02-21T02:44:58.977Z,34.03
2018-02-21T02:47:26.973Z,35.70
2018-02-21T02:49:54.434Z,36.57
2018-02-21T02:52:21.888Z,37.03
2018-02-21T02:54:49.619Z,39.03
2018-02-21T02:57:17.510Z,37.07
2018-02-21T02:59:45.728Z,40.40
2018-02-21T03:02:13.617Z,39.97
2018-02-21T03:04:41.062Z,39.30
2018-02-21T03:07:08.517Z,40.73
2018-02-21T03:09:36.517Z,38.57
2018-02-21T03:12:04.856Z,42.37
2018-02-21T03:14:32.314Z,41.47
2018-02-21T03:16:59.772Z,40.50
2018-02-21T03:19:28.470Z,41.37
2018-02-21T03:21:55.925Z,42.47
2018-02-21T03:24:23.377Z,42.23
2018-02-21T03:26:50.842Z,43.37
2018-02-21T03:29:18.293Z,43.07
2018-02-21T03:31:45.742Z,42.27
2018-02-21T03:34:13.197Z,42.63
2018-02-21T03:36:41.393Z,44.77
2018-02-21T03:39:08.851Z,42.47
2018-02-21T03:41:36.301Z,42.30
2018-02-21T03:44:03.757Z,44.97
2018-02-21T03:46:31.212Z,41.80
2018-02-21T03:49:01.028Z,44.30
2018-02-21T03:51:28.475Z,43.03
2018-02-21T03:53:55.934Z,42.87
2018-02-21T03:56:23.393Z,43.80
2018-02-21T03:58:50.842Z,41.73
2018-02-21T04:01:18.302Z,43.60
2018-02-21T04:03:46.331Z,44.13
2018-02-21T04:06:14.421Z,42.07
2018-02-21T04:08:42.305Z,44.13
2018-02-21T04:11:09.757Z,41.00
2018-02-21T04:13:37.585Z,41.67
2018-02-21T04:16:05.029Z,42.67
2018-02-21T04:18:32.480Z,41.03
2018-02-21T04:21:00.814Z,41.73
2018-02-21T04:23:28.261Z,42.37
2018-02-21T04:25:55.718Z,41.40
2018-02-21T04:28:23.180Z,40.63
2018-02-21T04:30:50.640Z,41.03
2018-02-21T04:33:18.918Z,40.17
2018-02-21T04:35:46.371Z,39.53
2018-02-21T04:38:20.462Z,39.00
2018-02-21T04:40:47.917Z,39.60
2018-02-21T04:43:15.390Z,38.60
2018-02-21T04:45:43.544Z,39.87
2018-02-21T04:48:10.998Z,38.80
2018-02-21T04:50:38.462Z,39.67
2018-02-21T04:53:05.921Z,40.23
2018-02-21T04:55:39.190Z,40.07
2018-02-21T04:58:09.217Z,39.40
2018-02-21T05:00:36.694Z,37.37
2018-02-21T05:03:04.186Z,38.87
2018-02-21T05:05:31.630Z,40.23
2018-02-21T05:07:59.855Z,39.13
2018-02-21T05:10:27.313Z,38.83
2018-02-21T05:12:54.801Z,40.13
2018-02-21T05:15:22.259Z,38.23
2018-02-21T05:17:49.989Z,38.47
2018-02-21T05:20:17.754Z,38.47
2018-02-21T05:22:45.244Z,38.87
2018-02-21T05:25:13.085Z,38.70
2018-02-21T05:27:40.549Z,38.97
2018-02-21T05:30:08.005Z,41.17
2018-02-21T05:32:35.468Z,39.40
2018-02-21T05:35:02.925Z,39.07
2018-02-21T05:37:30.379Z,40.00
2018-02-21T05:39:57.944Z,37.57
2018-02-21T05:42:25.401Z,38.70
2018-02-21T05:44:53.663Z,40.00
2018-02-21T05:47:21.121Z,38.30
2018-02-21T05:49:48.568Z,39.90
2018-02-21T05:52:16.030Z,39.03
2018-02-21T05:54:44.681Z,39.47
2018-02-21T05:57:12.137Z,39.53
2018-02-21T05:59:39.599Z,40.37
2018-02-21T06:02:07.037Z,38.53
2018-02-21T06:04:35.250Z,40.83
2018-02-21T06:07:02.704Z,40.53
2018-02-21T06:09:30.167Z,40.43
2018-02-21T06:11:57.706Z,40.07
2018-02-21T06:14:25.169Z,41.43
2018-02-21T06:16:53.045Z,40.53
2018-02-21T06:19:20.502Z,41.33
2018-02-21T06:21:47.957Z,41.07
2018-02-21T06:24:15.686Z,43.27
2018-02-21T06:26:43.912Z,42.40
2018-02-21T06:29:11.389Z,40.13
2018-02-21T06:31:39.265Z,41.43
2018-02-21T06:34:07.938Z,41.17
2018-02-21T06:36:36.408Z,41.23
2018-02-21T06:39:03.866Z,41.87
2018-02-21T06:41:32.118Z,42.63
2018-02-21T06:43:59.564Z,40.87
2018-02-21T06:46:27.088Z,41.63
2018-02-21T06:48:54.549Z,43.40
2018-02-21T06:51:22.654Z,42.27
2018-02-21T06:53:50.682Z,42.20
2018-02-21T06:56:18.137Z,40.17
2018-02-21T06:58:46.626Z,38.90
2018-02-21T07:01:14.839Z,40.07
2018-02-21T07:03:42.297Z,40.10
2018-02-21T07:06:09.757Z,43.67
2018-02-21T07:08:37.217Z,42.57
2018-02-21T07:11:04.680Z,45.47
2018-02-21T07:13:32.133Z,41.67
2018-02-21T07:15:59.605Z,39.83
2018-02-21T07:18:27.149Z,39.63
2018-02-21T07:20:54.605Z,43.30
2018-02-21T07:23:22.620Z,44.07
2018-02-21T07:25:50.077Z,42.63
2018-02-21T07:28:17.951Z,40.77
2018-02-21T07:30:45.407Z,40.77
2018-02-21T07:33:12.910Z,38.17
2018-02-21T07:35:40.367Z,37.13
2018-02-21T07:38:09.757Z,38.73
2018-02-21T07:40:37.922Z,38.17
2018-02-21T07:43:05.993Z,35.80
2018-02-21T07:45:34.003Z,35.87
2018-02-21T07:48:02.638Z,36.87
2018-02-21T07:50:31.233Z,36.47
2018-02-21T07:52:58.699Z,36.47
2018-02-21T07:55:26.150Z,35.83
2018-02-21T07:57:54.401Z,35.03
2018-02-21T08:00:21.841Z,33.80
2018-02-21T08:02:51.016Z,34.13
2018-02-21T08:05:19.231Z,34.27
2018-02-21T08:07:53.201Z,33.60
2018-02-21T08:10:21.433Z,32.33
2018-02-21T08:12:48.885Z,33.20
2018-02-21T08:15:16.353Z,32.27
2018-02-21T08:17:45.741Z,32.10
2018-02-21T08:20:13.695Z,31.90
2018-02-21T08:22:41.149Z,32.67
2018-02-21T08:25:09.450Z,31.70
2018-02-21T08:27:36.893Z,32.53
2018-02-21T08:30:05.106Z,32.60
2018-02-21T08:32:34.057Z,32.27
2018-02-21T08:35:01.518Z,31.33
2018-02-21T08:37:28.974Z,30.23
2018-02-21T08:39:56.444Z,31.37
2018-02-21T08:42:23.889Z,32.33
2018-02-21T08:44:51.880Z,31.00
2018-02-21T08:47:19.349Z,32.20
2018-02-21T08:49:47.565Z,32.37
2018-02-21T08:52:15.017Z,32.27
2018-02-21T08:54:42.477Z,32.73
2018-02-21T08:57:09.970Z,32.83
2018-02-21T08:59:38.196Z,31.97
2018-02-21T09:02:05.708Z,32.37
2018-02-21T09:04:39.686Z,34.63
2018-02-21T09:07:07.134Z,39.90
2018-02-21T09:09:35.418Z,33.63
2018-02-21T09:12:02.891Z,35.37
2018-02-21T09:14:30.336Z,31.70
2018-02-21T09:16:57.786Z,36.23
2018-02-21T09:19:25.250Z,29.23
2018-02-21T09:21:53.728Z,32.03
2018-02-21T09:24:21.193Z,29.60
2018-02-21T09:26:49.445Z,29.33
2018-02-21T09:29:17.183Z,29.37
2018-02-21T09:31:45.419Z,29.87
2018-02-21T09:34:12.869Z,29.93
2018-02-21T09:36:41.061Z,28.73
2018-02-21T09:39:08.501Z,29.80
2018-02-21T09:41:36.384Z,29.37
2018-02-21T09:44:03.839Z,29.47
2018-02-21T09:46:31.377Z,31.40
2018-02-21T09:48:58.829Z,30.60
2018-02-21T09:51:26.503Z,29.53
2018-02-21T09:53:53.957Z,30.90
2018-02-21T09:56:21.417Z,30.17
2018-02-21T09:58:48.978Z,30.63
2018-02-21T10:01:16.443Z,29.93
2018-02-21T10:03:43.881Z,29.27
2018-02-21T10:06:11.334Z,29.23
2018-02-21T10:08:41.360Z,27.90
2018-02-21T10:11:08.825Z,25.50
2018-02-21T10:13:36.275Z,25.97
2018-02-21T10:16:03.722Z,27.17
2018-02-21T10:18:31.189Z,25.53
2018-02-21T10:21:00.238Z,27.10
2018-02-21T10:23:28.077Z,28.63
2018-02-21T10:25:56.637Z,26.53
2018-02-21T10:28:24.094Z,26.20
2018-02-21T10:30:51.549Z,26.73
2018-02-21T10:33:19.004Z,25.70
2018-02-21T10:35:46.453Z,26.73
2018-02-21T10:38:13.903Z,27.10
2018-02-21T10:40:41.938Z,27.03
2018-02-21T10:43:10.134Z,27.40
2018-02-21T10:45:37.594Z,26.40
2018-02-21T10:48:05.039Z,27.80
2018-02-21T10:50:32.489Z,27.20
2018-02-21T10:53:00.398Z,26.53
2018-02-21T10:55:28.626Z,26.77
2018-02-21T10:57:56.098Z,27.53
2018-02-21T11:00:29.777Z,26.60
2018-02-21T11:02:57.238Z,25.13
2018-02-21T11:05:24.691Z,25.80
2018-02-21T11:07:52.178Z,25.40
2018-02-21T11:10:19.734Z,26.47
2018-02-21T11:12:47.190Z,27.63
2018-02-21T11:15:15.909Z,25.50
2018-02-21T11:17:44.158Z,24.83
2018-02-21T11:20:11.613Z,26.13
2018-02-21T11:22:39.166Z,25.87
2018-02-21T11:25:07.235Z,26.37
2018-02-21T11:27:35.123Z,24.43
2018-02-21T11:30:02.592Z,24.03
2018-02-21T11:32:30.815Z,25.30
2018-02-21T11:35:02.613Z,24.43
2018-02-21T11:37:30.504Z,24.63
2018-02-21T11:39:57.961Z,23.77
2018-02-21T11:42:25.410Z,24.10
2018-02-21T11:44:54.096Z,23.40
2018-02-21T11:47:23.705Z,22.77
2018-02-21T11:49:51.926Z,22.93
2018-02-21T11:52:19.379Z,24.73
2018-02-21T11:54:46.841Z,23.10
2018-02-21T11:57:14.738Z,24.53
2018-02-21T11:59:42.202Z,24.00
2018-02-21T12:02:10.417Z,23.90
2018-02-21T12:04:40.348Z,24.63
2018-02-21T12:07:07.810Z,23.23
2018-02-21T12:09:35.265Z,23.57
2018-02-21T12:12:02.720Z,26.93
2018-02-21T12:14:31.846Z,28.17
2018-02-21T12:16:59.885Z,25.43
2018-02-21T12:19:27.337Z,25.73
2018-02-21T12:21:54.794Z,25.77
2018-02-21T12:24:23.026Z,25.20
2018-02-21T12:26:50.481Z,24.67
2018-02-21T12:29:18.702Z,24.10
2018-02-21T12:31:49.761Z,24.70
2018-02-21T12:34:17.259Z,25.17
2018-02-21T12:36:44.709Z,24.27
2018-02-21T12:39:18.386Z,24.23
2018-02-21T12:41:45.833Z,23.97
2018-02-21T12:44:13.288Z,24.10
2018-02-21T12:46:41.328Z,22.97
2018-02-21T12:49:09.354Z,24.00
2018-02-21T12:51:37.581Z,24.00
2018-02-21T12:54:05.043Z,22.30
2018-02-21T12:56:32.513Z,22.23
2018-02-21T12:58:59.965Z,22.73
2018-02-21T13:01:27.807Z,22.70
2018-02-21T13:03:56.518Z,23.40
2018-02-21T13:06:24.486Z,22.53
2018-02-21T13:08:52.365Z,21.77
2018-02-21T13:11:19.916Z,22.73
2018-02-21T13:13:48.533Z,22.77
2018-02-21T13:16:17.270Z,21.40
2018-02-21T13:18:44.746Z,20.63
2018-02-21T13:21:14.748Z,20.30
2018-02-21T13:23:42.201Z,20.30
2018-02-21T13:26:09.914Z,19.77
2018-02-21T13:28:38.126Z,20.23
2018-02-21T13:31:05.585Z,20.87
2018-02-21T13:33:33.057Z,19.87
2018-02-21T13:36:00.612Z,20.00
2018-02-21T13:38:28.570Z,18.23
2018-02-21T13:40:56.185Z,20.60
2018-02-21T13:43:24.402Z,19.40
2018-02-21T13:45:52.301Z,19.70
2018-02-21T13:48:19.754Z,19.00
2018-02-21T13:50:47.295Z,19.87
2018-02-21T13:53:14.741Z,19.53
2018-02-21T13:55:42.224Z,18.93
2018-02-21T13:58:09.765Z,19.63
2018-02-21T14:00:37.660Z,19.03
2018-02-21T14:03:06.306Z,18.10
2018-02-21T14:05:33.758Z,18.80
2018-02-21T14:08:01.840Z,19.27
2018-02-21T14:10:29.305Z,17.17
2018-02-21T14:12:57.530Z,16.83
2018-02-21T14:15:25.413Z,17.47
2018-02-21T14:17:53.340Z,16.37
2018-02-21T14:20:21.557Z,16.23
2018-02-21T14:22:49.009Z,15.57
2018-02-21T14:25:16.502Z,15.63
2018-02-21T14:27:44.362Z,16.43
2018-02-21T14:30:13.307Z,15.23
2018-02-21T14:32:40.769Z,15.90
2018-02-21T14:35:08.221Z,16.80
2018-02-21T14:37:36.249Z,16.33
2018-02-21T14:40:03.718Z,16.90
2018-02-21T14:42:32.664Z,15.97
2018-02-21T14:45:00.234Z,16.47
2018-02-21T14:47:27.799Z,16.17
2018-02-21T14:49:56.009Z,17.43
2018-02-21T14:52:24.700Z,17.50
2018-02-21T14:54:53.485Z,17.57
2018-02-21T14:57:22.267Z,16.73
2018-02-21T14:59:50.481Z,18.00
2018-02-21T15:02:17.948Z,17.03
2018-02-21T15:04:45.762Z,17.60
2018-02-21T15:07:14.402Z,16.93
2018-02-21T15:09:43.094Z,17.37
2018-02-21T15:12:10.961Z,17.47
2018-02-21T15:14:38.421Z,16.20
2018-02-21T15:17:06.072Z,16.67
2018-02-21T15:19:33.549Z,17.77
2018-02-21T15:22:01.100Z,16.90
2018-02-21T15:24:28.546Z,16.23
2018-02-21T15:26:56.005Z,16.47
2018-02-21T15:29:23.461Z,15.93
2018-02-21T15:34:29.372Z,14.80
2018-02-21T15:36:57.608Z,15.87
2018-02-21T15:39:25.053Z,14.70
2018-02-21T15:41:52.966Z,15.03
2018-02-21T15:44:21.193Z,14.40
2018-02-21T15:46:49.410Z,14.93
2018-02-21T15:49:17.628Z,13.93
2018-02-21T15:51:45.092Z,15.87
2018-02-21T15:54:12.548Z,14.43
2018-02-21T15:56:40.006Z,16.27
2018-02-21T15:59:07.464Z,15.10
2018-02-21T16:01:34.919Z,13.17
2018-02-21T16:04:02.362Z,24.07
2018-02-21T16:06:32.941Z,14.90
2018-02-21T16:09:00.821Z,18.03
2018-02-21T16:11:29.473Z,15.63
2018-02-21T16:13:56.975Z,15.17
2018-02-21T16:16:24.396Z,19.33
2018-02-21T16:18:51.850Z,15.70
2018-02-21T16:21:19.297Z,15.93
2018-02-21T16:23:46.770Z,16.77
2018-02-21T16:26:14.217Z,16.50
2018-02-21T16:28:41.677Z,16.53
2018-02-21T16:31:09.139Z,14.90
2018-02-21T16:33:37.338Z,15.20
2018-02-21T16:36:05.774Z,15.33
2018-02-21T16:38:33.229Z,14.43
2018-02-21T16:41:00.689Z,14.40
2018-02-21T16:43:28.358Z,14.40
2018-02-21T16:45:55.809Z,14.07
2018-02-21T16:48:23.261Z,13.87
2018-02-21T16:50:50.777Z,13.97
2018-02-21T16:53:18.217Z,13.53
2018-02-21T16:55:46.497Z,13.90
2018-02-21T16:58:15.141Z,12.67
2018-02-21T17:00:42.597Z,11.70
2018-02-21T17:03:10.456Z,12.83
2018-02-21T17:05:37.917Z,12.17
2018-02-21T17:08:05.369Z,11.30
2018-02-21T17:10:33.358Z,11.87
2018-02-21T17:13:01.595Z,12.23
2018-02-21T17:15:29.050Z,11.57
2018-02-21T17:17:57.044Z,12.07
2018-02-21T17:20:24.550Z,11.73
2018-02-21T17:22:53.653Z,12.23
2018-02-21T17:25:21.106Z,11.40
2018-02-21T17:27:48.668Z,12.07
2018-02-21T17:30:19.480Z,11.70
2018-02-21T17:32:46.932Z,11.97
2018-02-21T17:35:15.145Z,11.57
2018-02-21T17:37:42.606Z,16.93
2018-02-21T17:40:10.842Z,18.33
2018-02-21T17:42:38.297Z,19.40
2018-02-21T17:45:05.966Z,15.97
2018-02-21T17:47:33.425Z,16.67
2018-02-21T17:50:00.887Z,14.40
2018-02-21T17:52:28.340Z,15.53
2018-02-21T17:54:55.807Z,15.97
2018-02-21T17:57:23.266Z,15.87
2018-02-21T17:59:51.405Z,13.73
2018-02-21T18:02:18.887Z,14.13
2018-02-21T18:04:46.469Z,15.33
2018-02-21T18:07:16.362Z,14.40
2018-02-21T18:09:44.359Z,15.10
2018-02-21T18:12:11.804Z,14.67
2018-02-21T18:14:39.256Z,14.10
2018-02-21T18:17:07.350Z,14.43
2018-02-21T18:19:37.373Z,14.33
2018-02-21T18:22:04.821Z,14.93
2018-02-21T18:24:32.276Z,14.67
2018-02-21T18:26:59.730Z,14.03
2018-02-21T18:29:28.509Z,15.07
2018-02-21T18:31:55.965Z,15.20
2018-02-21T18:34:23.674Z,15.73
2018-02-21T18:36:53.166Z,16.00
2018-02-21T18:39:21.130Z,15.63
2018-02-21T18:41:49.021Z,15.77
2018-02-21T18:44:16.469Z,16.00
2018-02-21T18:46:45.118Z,17.33
2018-02-21T18:49:12.577Z,16.83
2018-02-21T18:51:40.034Z,16.70
2018-02-21T18:54:07.490Z,18.70
2018-02-21T18:56:35.722Z,18.20
2018-02-21T18:59:03.195Z,18.17
2018-02-21T19:01:33.233Z,18.10
2018-02-21T19:04:00.681Z,18.50
2018-02-21T19:06:29.002Z,18.90
2018-02-21T19:08:57.758Z,20.10
2018-02-21T19:11:25.201Z,19.63
2018-02-21T19:13:52.662Z,19.07
2018-02-21T19:16:20.227Z,19.43
2018-02-21T19:18:47.690Z,21.20
2018-02-21T19:21:15.919Z,21.27
2018-02-21T19:23:43.381Z,22.10
2018-02-21T19:26:10.829Z,21.13
2018-02-21T19:28:38.285Z,23.63
2018-02-21T19:31:06.271Z,23.10
2018-02-21T19:33:33.742Z,22.87
2018-02-21T19:36:01.766Z,23.80
2018-02-21T19:38:29.226Z,24.10
2018-02-21T19:40:56.734Z,25.47
2018-02-21T19:43:24.194Z,24.70
2018-02-21T19:45:52.433Z,26.53
2018-02-21T19:48:20.584Z,24.03
2018-02-21T19:50:48.053Z,25.97
2018-02-21T19:53:15.544Z,24.93
2018-02-21T19:55:43.101Z,25.83
2018-02-21T19:58:11.004Z,26.13
2018-02-21T20:00:39.225Z,26.33
2018-02-21T20:03:09.148Z,25.97
2018-02-21T20:05:36.609Z,25.70
2018-02-21T20:08:04.070Z,27.00
2018-02-21T20:10:33.974Z,25.90
2018-02-21T20:13:01.434Z,26.43
2018-02-21T20:15:28.893Z,25.87
2018-02-21T20:17:56.354Z,27.83
2018-02-21T20:20:23.954Z,26.77
2018-02-21T20:22:52.177Z,26.27
2018-02-21T20:25:19.643Z,26.80
2018-02-21T20:27:47.098Z,26.53
2018-02-21T20:30:14.572Z,27.23
2018-02-21T20:32:42.029Z,27.93
2018-02-21T20:35:09.488Z,27.40
2018-02-21T20:37:36.945Z,27.00
2018-02-21T20:40:04.829Z,28.93
2018-02-21T20:42:33.050Z,27.57
2018-02-21T20:45:00.543Z,28.73
2018-02-21T20:47:28.970Z,28.87
2018-02-21T20:49:56.566Z,27.70
2018-02-21T20:52:24.021Z,28.63
2018-02-21T20:54:51.481Z,31.80
2018-02-21T20:57:19.033Z,30.07
2018-02-21T20:59:46.596Z,30.43
2018-02-21T21:02:14.062Z,30.07
2018-02-21T21:04:42.294Z,30.00
2018-02-21T21:07:09.996Z,28.10
2018-02-21T21:09:37.451Z,28.57
2018-02-21T21:12:09.541Z,29.63
2018-02-21T21:14:38.186Z,29.57
2018-02-21T21:17:05.642Z,28.43
2018-02-21T21:19:33.094Z,28.53
2018-02-21T21:22:02.725Z,28.47
2018-02-21T21:24:30.954Z,27.77
2018-02-21T21:26:58.414Z,28.60
2018-02-21T21:29:25.907Z,29.43
2018-02-21T21:31:53.556Z,28.90
2018-02-21T21:34:21.287Z,28.27
2018-02-21T21:36:48.746Z,28.30
2018-02-21T21:39:16.203Z,30.50
2018-02-21T21:41:43.665Z,29.70
2018-02-21T21:44:11.122Z,28.53
2018-02-21T21:46:39.149Z,29.53
2018-02-21T21:49:07.377Z,27.37
2018-02-21T21:51:35.314Z,28.17
2018-02-21T21:54:02.808Z,27.43
2018-02-21T21:56:30.308Z,27.43
2018-02-21T21:58:57.755Z,29.00
2018-02-21T22:01:26.524Z,27.40
2018-02-21T22:03:54.080Z,28.70
2018-02-21T22:06:24.093Z,26.90
2018-02-21T22:08:51.547Z,27.30
2018-02-21T22:11:19.705Z,26.93
2018-02-21T22:13:47.462Z,25.53
2018-02-21T22:16:14.924Z,26.53
2018-02-21T22:18:42.377Z,26.77
2018-02-21T22:21:09.864Z,25.77
2018-02-21T22:23:38.086Z,27.20
2018-02-21T22:26:05.577Z,26.53
2018-02-21T22:28:33.135Z,25.97
2018-02-21T22:31:01.047Z,25.97
2018-02-21T22:33:28.943Z,25.00
2018-02-21T22:35:56.429Z,24.93
2018-02-21T22:38:23.893Z,26.60
2018-02-21T22:40:52.120Z,24.77
2018-02-21T22:43:19.580Z,26.37
2018-02-21T22:45:47.462Z,24.80
2018-02-21T22:48:14.932Z,25.43
2018-02-21T22:50:42.801Z,25.80
2018-02-21T22:53:10.265Z,26.97
2018-02-21T22:55:37.813Z,25.90
2018-02-21T22:58:05.276Z,25.03
2018-02-21T23:00:33.297Z,25.57
2018-02-21T23:03:00.770Z,26.73
2018-02-21T23:05:29.403Z,26.17
2018-02-21T23:07:59.226Z,25.90
2018-02-21T23:10:27.447Z,26.40
2018-02-21T23:12:54.906Z,26.97
2018-02-21T23:15:22.370Z,25.30
2018-02-21T23:17:49.825Z,26.67
2018-02-21T23:20:19.122Z,28.27
2018-02-21T23:22:46.582Z,26.30
2018-02-21T23:25:14.048Z,27.10
2018-02-21T23:27:41.945Z,25.83
2018-02-21T23:30:10.174Z,27.70
2018-02-21T23:32:37.636Z,25.90
2018-02-21T23:35:05.789Z,27.80
2018-02-21T23:37:33.258Z,26.47
2018-02-21T23:40:00.713Z,27.60
2018-02-21T23:42:28.670Z,24.53
2018-02-21T23:44:56.129Z,26.60
2018-02-21T23:47:23.589Z,26.03
2018-02-21T23:49:51.044Z,27.10
2018-02-21T23:52:18.926Z,25.63
2018-02-21T23:54:46.378Z,25.80
2018-02-21T23:57:13.883Z,27.07
2018-02-21T23:59:42.805Z,25.17
